sensor_id;sensor_type;location;lat;lon;timestamp;P1;durP1;ratioP1;P2;durP2;ratioP2
10432;SDS011;5263;48.680;9.004;2023-07-20T00:00:48;2.00;;;0.70;;
10432;SDS011;5263;48.680;9.004;2023-07-20T00:03:15;1.10;;;1.00;;
10432;SDS011;5263;48.680;9.004;2023-07-20T00:05:48;2.30;;;1.50;;
10432;SDS011;5263;48.680;9.004;2023-07-20T00:08:14;3.40;;;1.23;;
10432;SDS011;5263;48.680;9.004;2023-07-20T00:10:40;1.07;;;0.90;;
10432;SDS011;5263;48.680;9.004;2023-07-20T00:13:06;2.67;;;0.77;;
10432;SDS011;5263;48.680;9.004;2023-07-20T00:15:32;0.97;;;0.90;;
10432;SDS011;5263;48.680;9.004;2023-07-20T00:18:00;4.70;;;0.93;;
10432;SDS011;5263;48.680;9.004;2023-07-20T00:20:26;2.17;;;1.00;;
10432;SDS011;5263;48.680;9.004;2023-07-20T00:22:52;3.20;;;1.00;;
10432;SDS011;5263;48.680;9.004;2023-07-20T00:25:18;1.50;;;0.83;;
10432;SDS011;5263;48.680;9.004;2023-07-20T00:27:43;2.23;;;0.80;;
10432;SDS011;5263;48.680;9.004;2023-07-20T00:30:09;1.40;;;1.10;;
10432;SDS011;5263;48.680;9.004;2023-07-20T00:32:35;1.27;;;0.90;;
10432;SDS011;5263;48.680;9.004;2023-07-20T00:35:00;2.00;;;1.10;;
10432;SDS011;5263;48.680;9.004;2023-07-20T00:37:26;3.03;;;1.13;;
10432;SDS011;5263;48.680;9.004;2023-07-20T00:39:52;4.67;;;1.23;;
10432;SDS011;5263;48.680;9.004;2023-07-20T00:42:18;1.20;;;1.10;;
10432;SDS011;5263;48.680;9.004;2023-07-20T00:44:44;1.10;;;1.00;;
10432;SDS011;5263;48.680;9.004;2023-07-20T00:47:09;2.10;;;0.90;;
10432;SDS011;5263;48.680;9.004;2023-07-20T00:49:35;1.10;;;0.90;;
10432;SDS011;5263;48.680;9.004;2023-07-20T00:52:01;1.13;;;1.00;;
10432;SDS011;5263;48.680;9.004;2023-07-20T00:54:31;1.30;;;0.90;;
10432;SDS011;5263;48.680;9.004;2023-07-20T00:56:57;1.93;;;1.27;;
10432;SDS011;5263;48.680;9.004;2023-07-20T00:59:23;3.90;;;0.93;;
10432;SDS011;5263;48.680;9.004;2023-07-20T01:01:50;1.13;;;0.97;;
10432;SDS011;5263;48.680;9.004;2023-07-20T01:04:16;1.90;;;1.00;;
10432;SDS011;5263;48.680;9.004;2023-07-20T01:06:45;3.60;;;1.37;;
10432;SDS011;5263;48.680;9.004;2023-07-20T01:09:17;1.70;;;1.10;;
10432;SDS011;5263;48.680;9.004;2023-07-20T01:11:54;3.23;;;1.10;;
10432;SDS011;5263;48.680;9.004;2023-07-20T01:14:23;4.20;;;0.90;;
10432;SDS011;5263;48.680;9.004;2023-07-20T01:16:50;1.23;;;0.90;;
10432;SDS011;5263;48.680;9.004;2023-07-20T01:19:17;3.00;;;1.00;;
10432;SDS011;5263;48.680;9.004;2023-07-20T01:21:56;1.30;;;1.20;;
10432;SDS011;5263;48.680;9.004;2023-07-20T01:27:26;1.47;;;1.00;;
10432;SDS011;5263;48.680;9.004;2023-07-20T01:33:04;1.67;;;0.97;;
10432;SDS011;5263;48.680;9.004;2023-07-20T01:35:32;3.80;;;0.90;;
10432;SDS011;5263;48.680;9.004;2023-07-20T01:37:59;4.57;;;1.10;;
10432;SDS011;5263;48.680;9.004;2023-07-20T01:40:25;1.70;;;1.10;;
10432;SDS011;5263;48.680;9.004;2023-07-20T01:42:52;4.40;;;1.00;;
10432;SDS011;5263;48.680;9.004;2023-07-20T01:45:18;1.77;;;1.10;;
10432;SDS011;5263;48.680;9.004;2023-07-20T01:47:43;2.33;;;1.17;;
10432;SDS011;5263;48.680;9.004;2023-07-20T01:50:09;4.77;;;1.43;;
10432;SDS011;5263;48.680;9.004;2023-07-20T01:52:35;1.80;;;0.80;;
10432;SDS011;5263;48.680;9.004;2023-07-20T01:55:00;2.23;;;1.50;;
10432;SDS011;5263;48.680;9.004;2023-07-20T01:57:26;1.90;;;1.10;;
10432;SDS011;5263;48.680;9.004;2023-07-20T01:59:52;2.73;;;0.97;;
10432;SDS011;5263;48.680;9.004;2023-07-20T02:02:17;1.87;;;1.10;;
10432;SDS011;5263;48.680;9.004;2023-07-20T02:04:43;1.63;;;1.30;;
10432;SDS011;5263;48.680;9.004;2023-07-20T02:07:09;2.30;;;1.10;;
10432;SDS011;5263;48.680;9.004;2023-07-20T02:09:34;1.30;;;0.93;;
10432;SDS011;5263;48.680;9.004;2023-07-20T02:12:00;2.50;;;1.10;;
10432;SDS011;5263;48.680;9.004;2023-07-20T02:14:25;2.93;;;1.00;;
10432;SDS011;5263;48.680;9.004;2023-07-20T02:16:51;2.90;;;1.17;;
10432;SDS011;5263;48.680;9.004;2023-07-20T02:19:17;1.37;;;0.77;;
10432;SDS011;5263;48.680;9.004;2023-07-20T02:21:43;2.43;;;0.93;;
10432;SDS011;5263;48.680;9.004;2023-07-20T02:24:09;1.17;;;1.03;;
10432;SDS011;5263;48.680;9.004;2023-07-20T02:26:34;1.90;;;0.80;;
10432;SDS011;5263;48.680;9.004;2023-07-20T02:29:00;1.27;;;0.90;;
10432;SDS011;5263;48.680;9.004;2023-07-20T02:31:25;2.73;;;1.27;;
10432;SDS011;5263;48.680;9.004;2023-07-20T02:33:51;1.10;;;0.83;;
10432;SDS011;5263;48.680;9.004;2023-07-20T02:36:16;1.80;;;0.83;;
10432;SDS011;5263;48.680;9.004;2023-07-20T02:38:42;1.00;;;0.90;;
10432;SDS011;5263;48.680;9.004;2023-07-20T02:41:08;1.03;;;1.03;;
10432;SDS011;5263;48.680;9.004;2023-07-20T02:43:33;3.87;;;0.90;;
10432;SDS011;5263;48.680;9.004;2023-07-20T02:45:59;1.80;;;1.03;;
10432;SDS011;5263;48.680;9.004;2023-07-20T02:48:24;2.00;;;1.07;;
10432;SDS011;5263;48.680;9.004;2023-07-20T02:50:50;1.17;;;1.07;;
10432;SDS011;5263;48.680;9.004;2023-07-20T02:53:16;2.20;;;1.00;;
10432;SDS011;5263;48.680;9.004;2023-07-20T02:55:41;1.07;;;0.73;;
10432;SDS011;5263;48.680;9.004;2023-07-20T02:58:07;1.53;;;0.90;;
10432;SDS011;5263;48.680;9.004;2023-07-20T03:00:33;1.43;;;1.20;;
10432;SDS011;5263;48.680;9.004;2023-07-20T03:02:58;3.90;;;1.00;;
10432;SDS011;5263;48.680;9.004;2023-07-20T03:05:24;2.17;;;1.00;;
10432;SDS011;5263;48.680;9.004;2023-07-20T03:07:53;1.53;;;1.10;;
10432;SDS011;5263;48.680;9.004;2023-07-20T03:10:18;2.37;;;0.90;;
10432;SDS011;5263;48.680;9.004;2023-07-20T03:12:44;6.17;;;1.20;;
10432;SDS011;5263;48.680;9.004;2023-07-20T03:15:09;5.93;;;1.30;;
10432;SDS011;5263;48.680;9.004;2023-07-20T03:17:35;2.13;;;0.90;;
10432;SDS011;5263;48.680;9.004;2023-07-20T03:20:01;1.70;;;0.97;;
10432;SDS011;5263;48.680;9.004;2023-07-20T03:22:27;1.03;;;0.90;;
10432;SDS011;5263;48.680;9.004;2023-07-20T03:24:53;1.27;;;0.80;;
10432;SDS011;5263;48.680;9.004;2023-07-20T03:27:18;1.33;;;1.00;;
10432;SDS011;5263;48.680;9.004;2023-07-20T03:29:44;1.23;;;1.00;;
10432;SDS011;5263;48.680;9.004;2023-07-20T03:32:10;2.10;;;0.80;;
10432;SDS011;5263;48.680;9.004;2023-07-20T03:34:35;1.03;;;0.90;;
10432;SDS011;5263;48.680;9.004;2023-07-20T03:37:01;2.40;;;1.20;;
10432;SDS011;5263;48.680;9.004;2023-07-20T03:39:29;3.03;;;1.00;;
10432;SDS011;5263;48.680;9.004;2023-07-20T03:41:55;1.47;;;1.00;;
10432;SDS011;5263;48.680;9.004;2023-07-20T03:44:22;3.03;;;1.40;;
10432;SDS011;5263;48.680;9.004;2023-07-20T03:46:47;1.53;;;1.20;;
10432;SDS011;5263;48.680;9.004;2023-07-20T03:49:13;2.20;;;1.03;;
10432;SDS011;5263;48.680;9.004;2023-07-20T03:51:38;2.37;;;0.87;;
10432;SDS011;5263;48.680;9.004;2023-07-20T03:54:04;2.10;;;0.90;;
10432;SDS011;5263;48.680;9.004;2023-07-20T03:56:30;2.37;;;1.17;;
10432;SDS011;5263;48.680;9.004;2023-07-20T03:58:59;2.33;;;1.10;;
10432;SDS011;5263;48.680;9.004;2023-07-20T04:01:24;1.83;;;1.03;;
10432;SDS011;5263;48.680;9.004;2023-07-20T04:03:50;1.57;;;0.90;;
10432;SDS011;5263;48.680;9.004;2023-07-20T04:06:16;1.20;;;1.10;;
10432;SDS011;5263;48.680;9.004;2023-07-20T04:08:42;2.60;;;1.10;;
10432;SDS011;5263;48.680;9.004;2023-07-20T04:11:08;3.10;;;0.90;;
10432;SDS011;5263;48.680;9.004;2023-07-20T04:13:34;2.40;;;1.20;;
10432;SDS011;5263;48.680;9.004;2023-07-20T04:16:00;2.73;;;1.37;;
10432;SDS011;5263;48.680;9.004;2023-07-20T04:18:25;2.27;;;1.40;;
10432;SDS011;5263;48.680;9.004;2023-07-20T04:20:51;8.83;;;1.60;;
10432;SDS011;5263;48.680;9.004;2023-07-20T04:23:16;4.63;;;1.20;;
10432;SDS011;5263;48.680;9.004;2023-07-20T04:25:42;2.40;;;1.30;;
10432;SDS011;5263;48.680;9.004;2023-07-20T04:28:08;3.77;;;1.33;;
10432;SDS011;5263;48.680;9.004;2023-07-20T04:30:35;2.00;;;1.00;;
10432;SDS011;5263;48.680;9.004;2023-07-20T04:33:02;2.20;;;1.03;;
10432;SDS011;5263;48.680;9.004;2023-07-20T04:38:18;2.60;;;1.00;;
10432;SDS011;5263;48.680;9.004;2023-07-20T04:40:45;3.07;;;1.90;;
10432;SDS011;5263;48.680;9.004;2023-07-20T04:43:11;2.20;;;1.00;;
10432;SDS011;5263;48.680;9.004;2023-07-20T04:45:38;1.87;;;0.80;;
10432;SDS011;5263;48.680;9.004;2023-07-20T04:48:06;1.77;;;0.70;;
10432;SDS011;5263;48.680;9.004;2023-07-20T04:50:35;3.70;;;0.73;;
10432;SDS011;5263;48.680;9.004;2023-07-20T04:53:00;1.60;;;1.00;;
10432;SDS011;5263;48.680;9.004;2023-07-20T04:55:27;2.47;;;1.00;;
10432;SDS011;5263;48.680;9.004;2023-07-20T04:57:53;2.03;;;1.23;;
10432;SDS011;5263;48.680;9.004;2023-07-20T05:00:18;2.47;;;1.10;;
10432;SDS011;5263;48.680;9.004;2023-07-20T05:02:44;1.87;;;1.30;;
10432;SDS011;5263;48.680;9.004;2023-07-20T05:05:12;4.47;;;1.00;;
10432;SDS011;5263;48.680;9.004;2023-07-20T05:07:38;4.07;;;0.90;;
10432;SDS011;5263;48.680;9.004;2023-07-20T05:10:04;3.73;;;0.90;;
10432;SDS011;5263;48.680;9.004;2023-07-20T05:12:30;2.50;;;1.07;;
10432;SDS011;5263;48.680;9.004;2023-07-20T05:14:55;1.97;;;0.90;;
10432;SDS011;5263;48.680;9.004;2023-07-20T05:17:21;4.03;;;0.97;;
10432;SDS011;5263;48.680;9.004;2023-07-20T05:19:46;2.90;;;1.37;;
10432;SDS011;5263;48.680;9.004;2023-07-20T05:22:13;5.70;;;1.10;;
10432;SDS011;5263;48.680;9.004;2023-07-20T05:24:39;1.10;;;0.93;;
10432;SDS011;5263;48.680;9.004;2023-07-20T05:27:05;6.13;;;1.40;;
10432;SDS011;5263;48.680;9.004;2023-07-20T05:29:30;3.40;;;0.80;;
10432;SDS011;5263;48.680;9.004;2023-07-20T05:31:56;5.87;;;1.10;;
10432;SDS011;5263;48.680;9.004;2023-07-20T05:34:22;4.93;;;1.03;;
10432;SDS011;5263;48.680;9.004;2023-07-20T05:36:48;2.10;;;1.07;;
10432;SDS011;5263;48.680;9.004;2023-07-20T05:39:14;2.40;;;0.83;;
10432;SDS011;5263;48.680;9.004;2023-07-20T05:41:42;1.17;;;1.00;;
10432;SDS011;5263;48.680;9.004;2023-07-20T05:44:07;3.13;;;1.00;;
10432;SDS011;5263;48.680;9.004;2023-07-20T05:46:33;1.33;;;0.83;;
10432;SDS011;5263;48.680;9.004;2023-07-20T05:48:58;1.20;;;0.87;;
10432;SDS011;5263;48.680;9.004;2023-07-20T05:51:24;5.77;;;1.00;;
10432;SDS011;5263;48.680;9.004;2023-07-20T05:53:49;1.07;;;0.90;;
10432;SDS011;5263;48.680;9.004;2023-07-20T05:56:15;2.13;;;0.80;;
10432;SDS011;5263;48.680;9.004;2023-07-20T05:58:41;4.53;;;1.13;;
10432;SDS011;5263;48.680;9.004;2023-07-20T06:01:06;1.90;;;0.77;;
10432;SDS011;5263;48.680;9.004;2023-07-20T06:03:32;3.03;;;0.83;;
10432;SDS011;5263;48.680;9.004;2023-07-20T06:05:59;2.00;;;1.17;;
10432;SDS011;5263;48.680;9.004;2023-07-20T06:08:27;0.93;;;0.83;;
10432;SDS011;5263;48.680;9.004;2023-07-20T06:10:53;3.23;;;1.00;;
10432;SDS011;5263;48.680;9.004;2023-07-20T06:13:19;3.43;;;0.90;;
10432;SDS011;5263;48.680;9.004;2023-07-20T06:15:44;6.17;;;1.13;;
10432;SDS011;5263;48.680;9.004;2023-07-20T06:18:10;5.37;;;1.10;;
10432;SDS011;5263;48.680;9.004;2023-07-20T06:20:36;3.53;;;1.40;;
10432;SDS011;5263;48.680;9.004;2023-07-20T06:23:01;2.30;;;0.90;;
10432;SDS011;5263;48.680;9.004;2023-07-20T06:25:27;4.67;;;0.90;;
10432;SDS011;5263;48.680;9.004;2023-07-20T06:27:54;3.07;;;0.73;;
10432;SDS011;5263;48.680;9.004;2023-07-20T06:30:21;2.37;;;1.00;;
10432;SDS011;5263;48.680;9.004;2023-07-20T06:32:47;0.80;;;0.80;;
10432;SDS011;5263;48.680;9.004;2023-07-20T06:35:13;2.90;;;0.80;;
10432;SDS011;5263;48.680;9.004;2023-07-20T06:37:39;0.90;;;0.90;;
10432;SDS011;5263;48.680;9.004;2023-07-20T06:40:04;2.37;;;0.90;;
10432;SDS011;5263;48.680;9.004;2023-07-20T06:42:31;1.43;;;0.70;;
10432;SDS011;5263;48.680;9.004;2023-07-20T06:44:57;2.80;;;0.83;;
10432;SDS011;5263;48.680;9.004;2023-07-20T06:47:23;8.43;;;1.07;;
10432;SDS011;5263;48.680;9.004;2023-07-20T06:49:48;4.00;;;1.47;;
10432;SDS011;5263;48.680;9.004;2023-07-20T06:52:14;1.33;;;1.00;;
10432;SDS011;5263;48.680;9.004;2023-07-20T06:54:40;3.80;;;1.00;;
10432;SDS011;5263;48.680;9.004;2023-07-20T06:57:06;3.57;;;1.20;;
10432;SDS011;5263;48.680;9.004;2023-07-20T06:59:31;3.67;;;1.10;;
10432;SDS011;5263;48.680;9.004;2023-07-20T07:01:57;2.20;;;1.10;;
10432;SDS011;5263;48.680;9.004;2023-07-20T07:04:22;0.70;;;0.70;;
10432;SDS011;5263;48.680;9.004;2023-07-20T07:06:48;2.83;;;0.90;;
10432;SDS011;5263;48.680;9.004;2023-07-20T07:09:13;1.63;;;1.00;;
10432;SDS011;5263;48.680;9.004;2023-07-20T07:11:39;3.13;;;0.90;;
10432;SDS011;5263;48.680;9.004;2023-07-20T07:14:05;10.13;;;1.47;;
10432;SDS011;5263;48.680;9.004;2023-07-20T07:16:30;0.80;;;0.80;;
10432;SDS011;5263;48.680;9.004;2023-07-20T07:18:56;2.13;;;0.90;;
10432;SDS011;5263;48.680;9.004;2023-07-20T07:21:21;3.80;;;1.07;;
10432;SDS011;5263;48.680;9.004;2023-07-20T07:23:47;2.10;;;0.90;;
10432;SDS011;5263;48.680;9.004;2023-07-20T07:26:13;3.60;;;0.90;;
10432;SDS011;5263;48.680;9.004;2023-07-20T07:28:38;2.07;;;1.00;;
10432;SDS011;5263;48.680;9.004;2023-07-20T07:31:04;1.33;;;1.20;;
10432;SDS011;5263;48.680;9.004;2023-07-20T07:33:33;4.83;;;0.73;;
10432;SDS011;5263;48.680;9.004;2023-07-20T07:35:59;2.57;;;1.07;;
10432;SDS011;5263;48.680;9.004;2023-07-20T07:38:25;7.70;;;1.13;;
10432;SDS011;5263;48.680;9.004;2023-07-20T07:40:50;2.87;;;1.10;;
10432;SDS011;5263;48.680;9.004;2023-07-20T07:43:16;4.40;;;1.40;;
10432;SDS011;5263;48.680;9.004;2023-07-20T07:45:42;2.43;;;0.93;;
10432;SDS011;5263;48.680;9.004;2023-07-20T07:48:07;7.10;;;1.00;;
10432;SDS011;5263;48.680;9.004;2023-07-20T07:50:36;4.23;;;0.93;;
10432;SDS011;5263;48.680;9.004;2023-07-20T07:53:02;4.57;;;1.00;;
10432;SDS011;5263;48.680;9.004;2023-07-20T07:55:28;3.23;;;1.43;;
10432;SDS011;5263;48.680;9.004;2023-07-20T07:57:53;3.77;;;1.10;;
10432;SDS011;5263;48.680;9.004;2023-07-20T08:00:19;7.27;;;1.20;;
10432;SDS011;5263;48.680;9.004;2023-07-20T08:02:45;11.97;;;1.63;;
10432;SDS011;5263;48.680;9.004;2023-07-20T08:05:14;3.57;;;0.93;;
10432;SDS011;5263;48.680;9.004;2023-07-20T08:07:40;2.23;;;1.10;;
10432;SDS011;5263;48.680;9.004;2023-07-20T08:10:05;1.23;;;0.80;;
10432;SDS011;5263;48.680;9.004;2023-07-20T08:12:32;3.30;;;1.27;;
10432;SDS011;5263;48.680;9.004;2023-07-20T08:14:57;4.10;;;0.90;;
10432;SDS011;5263;48.680;9.004;2023-07-20T08:17:23;4.37;;;0.90;;
10432;SDS011;5263;48.680;9.004;2023-07-20T08:19:48;3.63;;;1.30;;
10432;SDS011;5263;48.680;9.004;2023-07-20T08:22:14;4.20;;;0.90;;
10432;SDS011;5263;48.680;9.004;2023-07-20T08:24:40;4.20;;;1.00;;
10432;SDS011;5263;48.680;9.004;2023-07-20T08:27:07;5.00;;;0.90;;
10432;SDS011;5263;48.680;9.004;2023-07-20T08:29:33;2.00;;;0.90;;
10432;SDS011;5263;48.680;9.004;2023-07-20T08:31:59;4.37;;;0.90;;
10432;SDS011;5263;48.680;9.004;2023-07-20T08:34:25;12.20;;;1.37;;
10432;SDS011;5263;48.680;9.004;2023-07-20T08:36:50;4.83;;;1.10;;
10432;SDS011;5263;48.680;9.004;2023-07-20T08:39:16;4.83;;;0.70;;
10432;SDS011;5263;48.680;9.004;2023-07-20T08:41:46;1.20;;;1.07;;
10432;SDS011;5263;48.680;9.004;2023-07-20T08:44:11;2.20;;;0.70;;
10432;SDS011;5263;48.680;9.004;2023-07-20T08:46:38;3.60;;;1.03;;
10432;SDS011;5263;48.680;9.004;2023-07-20T08:49:04;4.00;;;0.83;;
10432;SDS011;5263;48.680;9.004;2023-07-20T08:51:30;3.20;;;1.03;;
10432;SDS011;5263;48.680;9.004;2023-07-20T08:53:57;3.70;;;1.00;;
10432;SDS011;5263;48.680;9.004;2023-07-20T08:56:23;3.20;;;0.90;;
10432;SDS011;5263;48.680;9.004;2023-07-20T08:58:54;5.33;;;0.93;;
10432;SDS011;5263;48.680;9.004;2023-07-20T09:01:21;1.97;;;0.90;;
10432;SDS011;5263;48.680;9.004;2023-07-20T09:03:47;1.00;;;0.80;;
10432;SDS011;5263;48.680;9.004;2023-07-20T09:06:13;2.60;;;0.80;;
10432;SDS011;5263;48.680;9.004;2023-07-20T09:08:40;1.07;;;0.80;;
10432;SDS011;5263;48.680;9.004;2023-07-20T09:11:06;1.90;;;0.73;;
10432;SDS011;5263;48.680;9.004;2023-07-20T09:13:33;1.67;;;0.83;;
10432;SDS011;5263;48.680;9.004;2023-07-20T09:15:58;1.33;;;0.80;;
10432;SDS011;5263;48.680;9.004;2023-07-20T09:18:25;1.63;;;0.90;;
10432;SDS011;5263;48.680;9.004;2023-07-20T09:20:52;3.63;;;0.60;;
10432;SDS011;5263;48.680;9.004;2023-07-20T09:23:29;2.53;;;0.90;;
10432;SDS011;5263;48.680;9.004;2023-07-20T09:25:57;5.17;;;1.00;;
10432;SDS011;5263;48.680;9.004;2023-07-20T09:28:22;1.43;;;0.70;;
10432;SDS011;5263;48.680;9.004;2023-07-20T09:30:48;4.00;;;0.67;;
10432;SDS011;5263;48.680;9.004;2023-07-20T09:33:23;2.77;;;0.87;;
10432;SDS011;5263;48.680;9.004;2023-07-20T09:35:49;3.57;;;0.73;;
10432;SDS011;5263;48.680;9.004;2023-07-20T09:38:15;1.27;;;0.70;;
10432;SDS011;5263;48.680;9.004;2023-07-20T09:40:41;0.60;;;0.60;;
10432;SDS011;5263;48.680;9.004;2023-07-20T09:43:10;5.13;;;0.87;;
10432;SDS011;5263;48.680;9.004;2023-07-20T09:45:39;1.23;;;0.80;;
10432;SDS011;5263;48.680;9.004;2023-07-20T09:48:09;1.93;;;0.50;;
10432;SDS011;5263;48.680;9.004;2023-07-20T09:50:39;0.50;;;0.50;;
10432;SDS011;5263;48.680;9.004;2023-07-20T09:53:07;3.93;;;0.70;;
10432;SDS011;5263;48.680;9.004;2023-07-20T09:55:36;1.17;;;0.70;;
10432;SDS011;5263;48.680;9.004;2023-07-20T09:58:03;1.93;;;0.50;;
10432;SDS011;5263;48.680;9.004;2023-07-20T10:00:31;1.13;;;0.80;;
10432;SDS011;5263;48.680;9.004;2023-07-20T10:02:58;0.87;;;0.60;;
10432;SDS011;5263;48.680;9.004;2023-07-20T10:05:27;0.67;;;0.50;;
10432;SDS011;5263;48.680;9.004;2023-07-20T10:07:57;0.83;;;0.60;;
10432;SDS011;5263;48.680;9.004;2023-07-20T10:10:24;1.80;;;0.60;;
10432;SDS011;5263;48.680;9.004;2023-07-20T10:12:50;3.00;;;0.83;;
10432;SDS011;5263;48.680;9.004;2023-07-20T10:15:24;1.67;;;0.57;;
10432;SDS011;5263;48.680;9.004;2023-07-20T10:20:27;1.60;;;0.83;;
10432;SDS011;5263;48.680;9.004;2023-07-20T10:22:53;4.73;;;0.70;;
10432;SDS011;5263;48.680;9.004;2023-07-20T10:25:22;1.40;;;0.70;;
10432;SDS011;5263;48.680;9.004;2023-07-20T10:27:48;1.43;;;0.73;;
10432;SDS011;5263;48.680;9.004;2023-07-20T10:30:14;0.50;;;0.50;;
10432;SDS011;5263;48.680;9.004;2023-07-20T10:32:42;1.10;;;0.50;;
10432;SDS011;5263;48.680;9.004;2023-07-20T10:35:12;2.00;;;0.67;;
10432;SDS011;5263;48.680;9.004;2023-07-20T10:37:46;0.77;;;0.60;;
10432;SDS011;5263;48.680;9.004;2023-07-20T10:42:50;1.00;;;0.57;;
10432;SDS011;5263;48.680;9.004;2023-07-20T10:45:16;1.43;;;0.57;;
10432;SDS011;5263;48.680;9.004;2023-07-20T10:47:46;2.57;;;0.70;;
10432;SDS011;5263;48.680;9.004;2023-07-20T10:50:12;1.27;;;0.60;;
10432;SDS011;5263;48.680;9.004;2023-07-20T10:52:40;3.60;;;1.00;;
10432;SDS011;5263;48.680;9.004;2023-07-20T10:55:16;0.67;;;0.50;;
10432;SDS011;5263;48.680;9.004;2023-07-20T10:57:42;0.40;;;0.40;;
10432;SDS011;5263;48.680;9.004;2023-07-20T11:00:11;1.80;;;0.60;;
10432;SDS011;5263;48.680;9.004;2023-07-20T11:02:46;2.27;;;0.70;;
10432;SDS011;5263;48.680;9.004;2023-07-20T11:07:59;0.60;;;0.43;;
10432;SDS011;5263;48.680;9.004;2023-07-20T11:10:24;0.40;;;0.40;;
10432;SDS011;5263;48.680;9.004;2023-07-20T11:16:01;1.20;;;0.50;;
10432;SDS011;5263;48.680;9.004;2023-07-20T11:18:29;1.15;;;0.50;;
10432;SDS011;5263;48.680;9.004;2023-07-20T11:20:56;2.50;;;0.60;;
10432;SDS011;5263;48.680;9.004;2023-07-20T11:23:22;0.70;;;0.60;;
10432;SDS011;5263;48.680;9.004;2023-07-20T11:25:48;1.10;;;0.50;;
10432;SDS011;5263;48.680;9.004;2023-07-20T11:28:15;1.83;;;0.63;;
10432;SDS011;5263;48.680;9.004;2023-07-20T11:30:40;1.83;;;0.70;;
10432;SDS011;5263;48.680;9.004;2023-07-20T11:33:09;0.60;;;0.47;;
10432;SDS011;5263;48.680;9.004;2023-07-20T11:35:35;0.90;;;0.50;;
10432;SDS011;5263;48.680;9.004;2023-07-20T11:38:07;1.07;;;0.50;;
10432;SDS011;5263;48.680;9.004;2023-07-20T11:40:33;2.00;;;0.50;;
10432;SDS011;5263;48.680;9.004;2023-07-20T11:42:58;1.03;;;0.60;;
10432;SDS011;5263;48.680;9.004;2023-07-20T11:45:25;1.87;;;0.50;;
10432;SDS011;5263;48.680;9.004;2023-07-20T11:47:50;0.30;;;0.30;;
10432;SDS011;5263;48.680;9.004;2023-07-20T11:50:16;1.10;;;0.52;;
10432;SDS011;5263;48.680;9.004;2023-07-20T11:52:41;4.53;;;0.90;;
10432;SDS011;5263;48.680;9.004;2023-07-20T11:55:08;0.87;;;0.60;;
10432;SDS011;5263;48.680;9.004;2023-07-20T11:57:34;0.70;;;0.57;;
10432;SDS011;5263;48.680;9.004;2023-07-20T12:00:01;0.50;;;0.50;;
10432;SDS011;5263;48.680;9.004;2023-07-20T12:02:35;0.43;;;0.43;;
10432;SDS011;5263;48.680;9.004;2023-07-20T12:05:04;1.15;;;0.50;;
10432;SDS011;5263;48.680;9.004;2023-07-20T12:07:32;0.80;;;0.57;;
10432;SDS011;5263;48.680;9.004;2023-07-20T12:10:05;0.98;;;0.60;;
10432;SDS011;5263;48.680;9.004;2023-07-20T12:12:37;0.50;;;0.50;;
10432;SDS011;5263;48.680;9.004;2023-07-20T12:15:19;0.90;;;0.50;;
10432;SDS011;5263;48.680;9.004;2023-07-20T12:17:45;3.63;;;0.50;;
10432;SDS011;5263;48.680;9.004;2023-07-20T12:20:11;1.50;;;0.55;;
10432;SDS011;5263;48.680;9.004;2023-07-20T12:22:38;2.15;;;0.90;;
10432;SDS011;5263;48.680;9.004;2023-07-20T12:25:08;5.15;;;0.60;;
10432;SDS011;5263;48.680;9.004;2023-07-20T12:27:37;1.10;;;0.60;;
10432;SDS011;5263;48.680;9.004;2023-07-20T12:30:04;0.55;;;0.55;;
10432;SDS011;5263;48.680;9.004;2023-07-20T12:32:30;2.08;;;0.55;;
10432;SDS011;5263;48.680;9.004;2023-07-20T12:34:56;1.85;;;0.60;;
10432;SDS011;5263;48.680;9.004;2023-07-20T12:37:22;1.98;;;0.60;;
10432;SDS011;5263;48.680;9.004;2023-07-20T12:39:48;1.38;;;0.57;;
10432;SDS011;5263;48.680;9.004;2023-07-20T12:42:14;0.82;;;0.50;;
10432;SDS011;5263;48.680;9.004;2023-07-20T12:44:42;0.73;;;0.60;;
10432;SDS011;5263;48.680;9.004;2023-07-20T12:47:07;1.77;;;0.40;;
10432;SDS011;5263;48.680;9.004;2023-07-20T12:49:33;1.00;;;0.52;;
10432;SDS011;5263;48.680;9.004;2023-07-20T12:51:59;1.23;;;0.50;;
10432;SDS011;5263;48.680;9.004;2023-07-20T12:54:25;0.60;;;0.43;;
10432;SDS011;5263;48.680;9.004;2023-07-20T12:56:50;1.38;;;0.50;;
10432;SDS011;5263;48.680;9.004;2023-07-20T12:59:16;0.60;;;0.40;;
10432;SDS011;5263;48.680;9.004;2023-07-20T13:01:41;0.50;;;0.50;;
10432;SDS011;5263;48.680;9.004;2023-07-20T13:04:08;0.55;;;0.52;;
10432;SDS011;5263;48.680;9.004;2023-07-20T13:06:35;2.65;;;0.60;;
10432;SDS011;5263;48.680;9.004;2023-07-20T13:09:00;3.33;;;0.60;;
10432;SDS011;5263;48.680;9.004;2023-07-20T13:11:26;1.27;;;0.40;;
10432;SDS011;5263;48.680;9.004;2023-07-20T13:13:52;0.63;;;0.40;;
10432;SDS011;5263;48.680;9.004;2023-07-20T13:16:18;1.02;;;0.55;;
10432;SDS011;5263;48.680;9.004;2023-07-20T13:18:43;0.65;;;0.50;;
10432;SDS011;5263;48.680;9.004;2023-07-20T13:21:09;0.85;;;0.50;;
10432;SDS011;5263;48.680;9.004;2023-07-20T13:23:39;4.32;;;0.60;;
10432;SDS011;5263;48.680;9.004;2023-07-20T13:26:04;1.67;;;0.60;;
10432;SDS011;5263;48.680;9.004;2023-07-20T13:28:30;0.80;;;0.50;;
10432;SDS011;5263;48.680;9.004;2023-07-20T13:30:56;2.92;;;0.40;;
10432;SDS011;5263;48.680;9.004;2023-07-20T13:33:21;1.38;;;0.40;;
10432;SDS011;5263;48.680;9.004;2023-07-20T13:35:47;0.52;;;0.52;;
10432;SDS011;5263;48.680;9.004;2023-07-20T13:38:13;0.50;;;0.50;;
10432;SDS011;5263;48.680;9.004;2023-07-20T13:40:38;2.10;;;0.55;;
10432;SDS011;5263;48.680;9.004;2023-07-20T13:43:04;1.85;;;0.70;;
10432;SDS011;5263;48.680;9.004;2023-07-20T13:45:29;0.52;;;0.52;;
10432;SDS011;5263;48.680;9.004;2023-07-20T13:47:55;0.85;;;0.50;;
10432;SDS011;5263;48.680;9.004;2023-07-20T13:50:20;2.05;;;0.40;;
10432;SDS011;5263;48.680;9.004;2023-07-20T13:52:46;0.60;;;0.60;;
10432;SDS011;5263;48.680;9.004;2023-07-20T13:55:12;0.57;;;0.50;;
10432;SDS011;5263;48.680;9.004;2023-07-20T13:57:38;2.38;;;0.60;;
10432;SDS011;5263;48.680;9.004;2023-07-20T14:00:04;2.42;;;0.50;;
10432;SDS011;5263;48.680;9.004;2023-07-20T14:02:30;6.53;;;0.50;;
10432;SDS011;5263;48.680;9.004;2023-07-20T14:04:55;2.55;;;0.50;;
10432;SDS011;5263;48.680;9.004;2023-07-20T14:07:21;1.67;;;0.60;;
10432;SDS011;5263;48.680;9.004;2023-07-20T14:09:47;2.38;;;0.50;;
10432;SDS011;5263;48.680;9.004;2023-07-20T14:12:13;0.90;;;0.50;;
10432;SDS011;5263;48.680;9.004;2023-07-20T14:14:39;0.57;;;0.50;;
10432;SDS011;5263;48.680;9.004;2023-07-20T14:17:06;0.80;;;0.60;;
10432;SDS011;5263;48.680;9.004;2023-07-20T14:19:32;1.38;;;0.50;;
10432;SDS011;5263;48.680;9.004;2023-07-20T14:21:57;1.15;;;0.57;;
10432;SDS011;5263;48.680;9.004;2023-07-20T14:24:24;0.55;;;0.55;;
10432;SDS011;5263;48.680;9.004;2023-07-20T14:26:50;0.60;;;0.60;;
10432;SDS011;5263;48.680;9.004;2023-07-20T14:29:16;1.02;;;0.60;;
10432;SDS011;5263;48.680;9.004;2023-07-20T14:31:43;0.50;;;0.50;;
10432;SDS011;5263;48.680;9.004;2023-07-20T14:34:09;0.50;;;0.50;;
10432;SDS011;5263;48.680;9.004;2023-07-20T14:36:34;0.50;;;0.50;;
10432;SDS011;5263;48.680;9.004;2023-07-20T14:39:00;1.25;;;0.50;;
10432;SDS011;5263;48.680;9.004;2023-07-20T14:41:26;0.50;;;0.43;;
10432;SDS011;5263;48.680;9.004;2023-07-20T14:43:51;1.30;;;0.77;;
10432;SDS011;5263;48.680;9.004;2023-07-20T14:46:17;0.73;;;0.47;;
10432;SDS011;5263;48.680;9.004;2023-07-20T14:48:42;1.23;;;0.60;;
10432;SDS011;5263;48.680;9.004;2023-07-20T14:51:08;0.65;;;0.57;;
10432;SDS011;5263;48.680;9.004;2023-07-20T14:53:33;1.88;;;0.70;;
10432;SDS011;5263;48.680;9.004;2023-07-20T14:56:00;0.52;;;0.50;;
10432;SDS011;5263;48.680;9.004;2023-07-20T14:58:26;1.00;;;0.50;;
10432;SDS011;5263;48.680;9.004;2023-07-20T15:00:52;0.52;;;0.50;;
10432;SDS011;5263;48.680;9.004;2023-07-20T15:03:18;1.75;;;0.60;;
10432;SDS011;5263;48.680;9.004;2023-07-20T15:05:43;2.72;;;0.47;;
10432;SDS011;5263;48.680;9.004;2023-07-20T15:08:09;0.70;;;0.70;;
10432;SDS011;5263;48.680;9.004;2023-07-20T15:10:34;1.52;;;0.77;;
10432;SDS011;5263;48.680;9.004;2023-07-20T15:13:00;3.50;;;0.52;;
10432;SDS011;5263;48.680;9.004;2023-07-20T15:15:26;0.67;;;0.60;;